sensor_id;sensor_type;location;lat;lon;timestamp;pressure;altitude;pressure_sealevel;temperature
39959;BMP280;25639;53.634;9.880;2022-07-18T00:01:29;155765.72;;;13.72
39959;BMP280;25639;53.634;9.880;2022-07-18T00:03:55;155787.44;;;13.81
39959;BMP280;25639;53.634;9.880;2022-07-18T00:06:20;155809.19;;;13.90
39959;BMP280;25639;53.634;9.880;2022-07-18T00:08:46;155821.97;;;13.95
39959;BMP280;25639;53.634;9.880;2022-07-18T00:11:11;155813.03;;;13.91
39959;BMP280;25639;53.634;9.880;2022-07-18T00:13:37;155809.19;;;13.90
39959;BMP280;25639;53.634;9.880;2022-07-18T00:16:03;155810.44;;;13.90
39959;BMP280;25639;53.634;9.880;2022-07-18T00:18:28;155832.19;;;13.99
39959;BMP280;25639;53.634;9.880;2022-07-18T00:20:53;155837.28;;;14.01
39959;BMP280;25639;53.634;9.880;2022-07-18T00:23:19;155856.44;;;14.09
39959;BMP280;25639;53.634;9.880;2022-07-18T00:25:44;155866.72;;;14.13
39959;BMP280;25639;53.634;9.880;2022-07-18T00:28:09;155869.22;;;14.14
39959;BMP280;25639;53.634;9.880;2022-07-18T00:30:37;155861.53;;;14.11
39959;BMP280;25639;53.634;9.880;2022-07-18T00:33:02;155861.53;;;14.11
39959;BMP280;25639;53.634;9.880;2022-07-18T00:35:28;155869.22;;;14.14
39959;BMP280;25639;53.634;9.880;2022-07-18T00:37:53;155874.34;;;14.16
39959;BMP280;25639;53.634;9.880;2022-07-18T00:40:18;155878.19;;;14.18
39959;BMP280;25639;53.634;9.880;2022-07-18T00:42:44;155865.38;;;14.13
39959;BMP280;25639;53.634;9.880;2022-07-18T00:45:10;155876.91;;;14.17
39959;BMP280;25639;53.634;9.880;2022-07-18T00:47:35;155851.34;;;14.07
39959;BMP280;25639;53.634;9.880;2022-07-18T00:50:01;155844.97;;;14.04
39959;BMP280;25639;53.634;9.880;2022-07-18T00:52:28;155805.34;;;13.88
39959;BMP280;25639;53.634;9.880;2022-07-18T00:54:53;155779.78;;;13.78
39959;BMP280;25639;53.634;9.880;2022-07-18T00:57:19;155767.00;;;13.73
39959;BMP280;25639;53.634;9.880;2022-07-18T00:59:45;155763.16;;;13.71
39959;BMP280;25639;53.634;9.880;2022-07-18T01:02:29;155770.81;;;13.75
39959;BMP280;25639;53.634;9.880;2022-07-18T01:04:54;155777.25;;;13.77
39959;BMP280;25639;53.634;9.880;2022-07-18T01:07:20;155784.88;;;13.80
39959;BMP280;25639;53.634;9.880;2022-07-18T01:09:45;155782.34;;;13.79
39959;BMP280;25639;53.634;9.880;2022-07-18T01:12:11;155777.25;;;13.77
39959;BMP280;25639;53.634;9.880;2022-07-18T01:14:37;155772.09;;;13.75
39959;BMP280;25639;53.634;9.880;2022-07-18T01:17:02;155769.56;;;13.74
39959;BMP280;25639;53.634;9.880;2022-07-18T01:19:29;155758.03;;;13.69
39959;BMP280;25639;53.634;9.880;2022-07-18T01:21:54;155768.28;;;13.73
39959;BMP280;25639;53.634;9.880;2022-07-18T01:24:20;155744.00;;;13.64
39959;BMP280;25639;53.634;9.880;2022-07-18T01:26:45;155732.47;;;13.59
39959;BMP280;25639;53.634;9.880;2022-07-18T01:29:11;155742.72;;;13.63
39959;BMP280;25639;53.634;9.880;2022-07-18T01:31:36;155727.38;;;13.57
39959;BMP280;25639;53.634;9.880;2022-07-18T01:34:02;155744.00;;;13.64
39959;BMP280;25639;53.634;9.880;2022-07-18T01:36:27;155731.22;;;13.59
39959;BMP280;25639;53.634;9.880;2022-07-18T01:38:54;155731.22;;;13.59
39959;BMP280;25639;53.634;9.880;2022-07-18T01:41:19;155735.03;;;13.60
39959;BMP280;25639;53.634;9.880;2022-07-18T01:43:44;155705.63;;;13.48
39959;BMP280;25639;53.634;9.880;2022-07-18T01:46:10;155685.22;;;13.40
39959;BMP280;25639;53.634;9.880;2022-07-18T01:48:37;155680.13;;;13.38
39959;BMP280;25639;53.634;9.880;2022-07-18T01:51:03;155683.97;;;13.40
39959;BMP280;25639;53.634;9.880;2022-07-18T01:53:29;155686.50;;;13.41
39959;BMP280;25639;53.634;9.880;2022-07-18T01:55:54;155694.16;;;13.44
39959;BMP280;25639;53.634;9.880;2022-07-18T01:58:19;155685.22;;;13.40
39959;BMP280;25639;53.634;9.880;2022-07-18T02:00:45;155686.50;;;13.41
39959;BMP280;25639;53.634;9.880;2022-07-18T02:03:10;155695.44;;;13.44
39959;BMP280;25639;53.634;9.880;2022-07-18T02:05:35;155699.28;;;13.46
39959;BMP280;25639;53.634;9.880;2022-07-18T02:08:00;155691.59;;;13.43
39959;BMP280;25639;53.634;9.880;2022-07-18T02:10:26;155698.00;;;13.45
39959;BMP280;25639;53.634;9.880;2022-07-18T02:12:51;155687.75;;;13.41
39959;BMP280;25639;53.634;9.880;2022-07-18T02:15:16;155687.75;;;13.41
39959;BMP280;25639;53.634;9.880;2022-07-18T02:17:42;155681.38;;;13.39
39959;BMP280;25639;53.634;9.880;2022-07-18T02:20:10;155678.81;;;13.38
39959;BMP280;25639;53.634;9.880;2022-07-18T02:22:35;155664.75;;;13.32
39959;BMP280;25639;53.634;9.880;2022-07-18T02:25:01;155667.34;;;13.33
39959;BMP280;25639;53.634;9.880;2022-07-18T02:27:27;155675.03;;;13.36
39959;BMP280;25639;53.634;9.880;2022-07-18T02:29:53;155676.28;;;13.37
39959;BMP280;25639;53.634;9.880;2022-07-18T02:32:19;155671.19;;;13.34
39959;BMP280;25639;53.634;9.880;2022-07-18T02:34:44;155660.88;;;13.30
39959;BMP280;25639;53.634;9.880;2022-07-18T02:37:10;155646.84;;;13.25
39959;BMP280;25639;53.634;9.880;2022-07-18T02:39:36;155630.25;;;13.18
39959;BMP280;25639;53.634;9.880;2022-07-18T02:42:02;155631.53;;;13.19
39959;BMP280;25639;53.634;9.880;2022-07-18T02:44:27;155643.00;;;13.23
39959;BMP280;25639;53.634;9.880;2022-07-18T02:46:52;155641.72;;;13.23
39959;BMP280;25639;53.634;9.880;2022-07-18T02:49:18;155655.78;;;13.28
39959;BMP280;25639;53.634;9.880;2022-07-18T02:51:57;155644.31;;;13.24
39959;BMP280;25639;53.634;9.880;2022-07-18T02:54:23;155646.84;;;13.25
39959;BMP280;25639;53.634;9.880;2022-07-18T02:56:49;155649.41;;;13.26
39959;BMP280;25639;53.634;9.880;2022-07-18T02:59:14;155651.94;;;13.27
39959;BMP280;25639;53.634;9.880;2022-07-18T03:01:39;155646.84;;;13.25
39959;BMP280;25639;53.634;9.880;2022-07-18T03:04:05;155634.06;;;13.20
39959;BMP280;25639;53.634;9.880;2022-07-18T03:06:30;155639.19;;;13.22
39959;BMP280;25639;53.634;9.880;2022-07-18T03:08:55;155625.09;;;13.16
39959;BMP280;25639;53.634;9.880;2022-07-18T03:11:21;155611.06;;;13.10
39959;BMP280;25639;53.634;9.880;2022-07-18T03:13:46;155603.38;;;13.07
39959;BMP280;25639;53.634;9.880;2022-07-18T03:16:11;155608.53;;;13.09
39959;BMP280;25639;53.634;9.880;2022-07-18T03:18:36;155621.31;;;13.14
39959;BMP280;25639;53.634;9.880;2022-07-18T03:21:02;155640.47;;;13.22
39959;BMP280;25639;53.634;9.880;2022-07-18T03:23:27;155612.34;;;13.11
39959;BMP280;25639;53.634;9.880;2022-07-18T03:25:52;155626.41;;;13.16
39959;BMP280;25639;53.634;9.880;2022-07-18T03:28:18;155644.31;;;13.24
39959;BMP280;25639;53.634;9.880;2022-07-18T03:30:43;155617.47;;;13.13
39959;BMP280;25639;53.634;9.880;2022-07-18T03:33:08;155621.31;;;13.14
39959;BMP280;25639;53.634;9.880;2022-07-18T03:35:34;155586.81;;;13.01
39959;BMP280;25639;53.634;9.880;2022-07-18T03:37:59;155577.88;;;12.97
39959;BMP280;25639;53.634;9.880;2022-07-18T03:40:24;155542.13;;;12.83
39959;BMP280;25639;53.634;9.880;2022-07-18T03:42:50;155538.28;;;12.81
39959;BMP280;25639;53.634;9.880;2022-07-18T03:45:15;155549.75;;;12.86
39959;BMP280;25639;53.634;9.880;2022-07-18T03:47:40;155561.25;;;12.90
39959;BMP280;25639;53.634;9.880;2022-07-18T03:50:06;155591.91;;;13.03
39959;BMP280;25639;53.634;9.880;2022-07-18T03:52:31;155609.81;;;13.10
39959;BMP280;25639;53.634;9.880;2022-07-18T03:54:56;155626.41;;;13.16
39959;BMP280;25639;53.634;9.880;2022-07-18T03:57:22;155637.88;;;13.21
39959;BMP280;25639;53.634;9.880;2022-07-18T03:59:47;155658.34;;;13.29
39959;BMP280;25639;53.634;9.880;2022-07-18T04:02:12;155651.94;;;13.27
39959;BMP280;25639;53.634;9.880;2022-07-18T04:04:38;155646.84;;;13.25
39959;BMP280;25639;53.634;9.880;2022-07-18T04:07:03;155659.63;;;13.30
39959;BMP280;25639;53.634;9.880;2022-07-18T04:09:29;155666.06;;;13.32
39959;BMP280;25639;53.634;9.880;2022-07-18T04:11:54;155669.88;;;13.34
39959;BMP280;25639;53.634;9.880;2022-07-18T04:14:20;155695.44;;;13.44
39959;BMP280;25639;53.634;9.880;2022-07-18T04:16:47;155728.69;;;13.58
39959;BMP280;25639;53.634;9.880;2022-07-18T04:19:13;155692.91;;;13.43
39959;BMP280;25639;53.634;9.880;2022-07-18T04:21:38;155687.75;;;13.41
39959;BMP280;25639;53.634;9.880;2022-07-18T04:24:03;155681.38;;;13.39
39959;BMP280;25639;53.634;9.880;2022-07-18T04:26:29;155713.31;;;13.51
39959;BMP280;25639;53.634;9.880;2022-07-18T04:28:54;155727.38;;;13.57
39959;BMP280;25639;53.634;9.880;2022-07-18T04:31:19;155740.16;;;13.62
39959;BMP280;25639;53.634;9.880;2022-07-18T04:33:45;155745.25;;;13.64
39959;BMP280;25639;53.634;9.880;2022-07-18T04:36:10;155756.78;;;13.69
39959;BMP280;25639;53.634;9.880;2022-07-18T04:38:35;155781.03;;;13.79
39959;BMP280;25639;53.634;9.880;2022-07-18T04:41:04;155810.44;;;13.90
39959;BMP280;25639;53.634;9.880;2022-07-18T04:43:30;155836.03;;;14.01
39959;BMP280;25639;53.634;9.880;2022-07-18T04:45:56;155871.81;;;14.15
39959;BMP280;25639;53.634;9.880;2022-07-18T04:48:21;155930.59;;;14.39
39959;BMP280;25639;53.634;9.880;2022-07-18T04:50:46;156027.81;;;14.78
39959;BMP280;25639;53.634;9.880;2022-07-18T04:53:12;156103.28;;;15.08
39959;BMP280;25639;53.634;9.880;2022-07-18T04:55:37;156172.31;;;15.36
39959;BMP280;25639;53.634;9.880;2022-07-18T04:58:02;156226.06;;;15.57
39959;BMP280;25639;53.634;9.880;2022-07-18T05:00:28;156252.91;;;15.68
39959;BMP280;25639;53.634;9.880;2022-07-18T05:02:54;156269.63;;;15.75
39959;BMP280;25639;53.634;9.880;2022-07-18T05:05:21;156233.75;;;15.60
39959;BMP280;25639;53.634;9.880;2022-07-18T05:07:48;156270.88;;;15.75
39959;BMP280;25639;53.634;9.880;2022-07-18T05:10:15;156319.50;;;15.95
39959;BMP280;25639;53.634;9.880;2022-07-18T05:12:42;156346.38;;;16.06
39959;BMP280;25639;53.634;9.880;2022-07-18T05:15:09;156370.72;;;16.15
39959;BMP280;25639;53.634;9.880;2022-07-18T05:17:39;156439.81;;;16.43
39959;BMP280;25639;53.634;9.880;2022-07-18T05:20:06;156392.47;;;16.24
39959;BMP280;25639;53.634;9.880;2022-07-18T05:22:32;156386.06;;;16.22
39959;BMP280;25639;53.634;9.880;2022-07-18T05:24:59;156388.63;;;16.23
39959;BMP280;25639;53.634;9.880;2022-07-18T05:27:25;156364.28;;;16.13
39959;BMP280;25639;53.634;9.880;2022-07-18T05:29:50;156419.34;;;16.35
39959;BMP280;25639;53.634;9.880;2022-07-18T05:32:15;156456.47;;;16.50
39959;BMP280;25639;53.634;9.880;2022-07-18T05:34:41;156488.44;;;16.63
39959;BMP280;25639;53.634;9.880;2022-07-18T05:37:06;156524.28;;;16.77
39959;BMP280;25639;53.634;9.880;2022-07-18T05:39:31;156543.59;;;16.85
39959;BMP280;25639;53.634;9.880;2022-07-18T05:41:57;156555.06;;;16.89
39959;BMP280;25639;53.634;9.880;2022-07-18T05:44:22;156599.88;;;17.07
39959;BMP280;25639;53.634;9.880;2022-07-18T05:46:47;156629.34;;;17.19
39959;BMP280;25639;53.634;9.880;2022-07-18T05:49:13;156712.56;;;17.52
39959;BMP280;25639;53.634;9.880;2022-07-18T05:51:39;156747.16;;;17.66
39959;BMP280;25639;53.634;9.880;2022-07-18T05:54:04;156785.63;;;17.82
39959;BMP280;25639;53.634;9.880;2022-07-18T05:56:30;156754.88;;;17.69
39959;BMP280;25639;53.634;9.880;2022-07-18T05:58:55;156788.16;;;17.83
39959;BMP280;25639;53.634;9.880;2022-07-18T06:01:20;156822.78;;;17.97
39959;BMP280;25639;53.634;9.880;2022-07-18T06:03:47;156900.97;;;18.28
39959;BMP280;25639;53.634;9.880;2022-07-18T06:06:13;156908.63;;;18.31
39959;BMP280;25639;53.634;9.880;2022-07-18T06:08:39;156813.84;;;17.93
39959;BMP280;25639;53.634;9.880;2022-07-18T06:11:04;156908.63;;;18.31
39959;BMP280;25639;53.634;9.880;2022-07-18T06:13:32;157074.00;;;18.97
39959;BMP280;25639;53.634;9.880;2022-07-18T06:15:58;157140.69;;;19.24
39959;BMP280;25639;53.634;9.880;2022-07-18T06:18:23;157157.34;;;19.31
39959;BMP280;25639;53.634;9.880;2022-07-18T06:20:48;157183.00;;;19.41
39959;BMP280;25639;53.634;9.880;2022-07-18T06:23:13;157106.09;;;19.10
39959;BMP280;25639;53.634;9.880;2022-07-18T06:25:39;157241.97;;;19.65
39959;BMP280;25639;53.634;9.880;2022-07-18T06:28:04;157315.09;;;19.94
39959;BMP280;25639;53.634;9.880;2022-07-18T06:30:29;157344.63;;;20.06
39959;BMP280;25639;53.634;9.880;2022-07-18T06:32:55;157365.16;;;20.14
39959;BMP280;25639;53.634;9.880;2022-07-18T06:35:20;157597.44;;;21.07
39959;BMP280;25639;53.634;9.880;2022-07-18T06:37:45;157711.69;;;21.52
39959;BMP280;25639;53.634;9.880;2022-07-18T06:40:11;157707.84;;;21.51
39959;BMP280;25639;53.634;9.880;2022-07-18T06:42:37;157773.34;;;21.77
39959;BMP280;25639;53.634;9.880;2022-07-18T06:45:03;157832.38;;;22.01
39959;BMP280;25639;53.634;9.880;2022-07-18T06:47:29;157878.59;;;22.19
39959;BMP280;25639;53.634;9.880;2022-07-18T06:49:54;157879.91;;;22.20
39959;BMP280;25639;53.634;9.880;2022-07-18T06:52:20;158115.03;;;23.14
39959;BMP280;25639;53.634;9.880;2022-07-18T06:54:45;158039.19;;;22.83
39959;BMP280;25639;53.634;9.880;2022-07-18T06:57:11;157754.09;;;21.69
39959;BMP280;25639;53.634;9.880;2022-07-18T06:59:36;157806.69;;;21.90
39959;BMP280;25639;53.634;9.880;2022-07-18T07:02:02;157888.91;;;22.23
39959;BMP280;25639;53.634;9.880;2022-07-18T07:04:27;157990.38;;;22.64
39959;BMP280;25639;53.634;9.880;2022-07-18T07:06:52;158059.75;;;22.92
39959;BMP280;25639;53.634;9.880;2022-07-18T07:09:17;158115.03;;;23.14
39959;BMP280;25639;53.634;9.880;2022-07-18T07:11:43;158147.16;;;23.27
39959;BMP280;25639;53.634;9.880;2022-07-18T07:14:08;158054.63;;;22.90
39959;BMP280;25639;53.634;9.880;2022-07-18T07:16:34;157963.41;;;22.53
39959;BMP280;25639;53.634;9.880;2022-07-18T07:18:59;158079.03;;;22.99
39959;BMP280;25639;53.634;9.880;2022-07-18T07:21:24;158160.00;;;23.32
39959;BMP280;25639;53.634;9.880;2022-07-18T07:23:49;158176.72;;;23.38
39959;BMP280;25639;53.634;9.880;2022-07-18T07:26:15;158148.47;;;23.27
39959;BMP280;25639;53.634;9.880;2022-07-18T07:28:40;158161.31;;;23.32
39959;BMP280;25639;53.634;9.880;2022-07-18T07:31:05;158180.56;;;23.40
39959;BMP280;25639;53.634;9.880;2022-07-18T07:33:31;158190.84;;;23.44
39959;BMP280;25639;53.634;9.880;2022-07-18T07:35:56;158107.31;;;23.11
39959;BMP280;25639;53.634;9.880;2022-07-18T07:38:22;158158.72;;;23.31
39959;BMP280;25639;53.634;9.880;2022-07-18T07:40:53;158183.13;;;23.41
39959;BMP280;25639;53.634;9.880;2022-07-18T07:43:18;158374.66;;;24.17
39959;BMP280;25639;53.634;9.880;2022-07-18T07:45:48;158453.13;;;24.49
39959;BMP280;25639;53.634;9.880;2022-07-18T07:48:14;158463.44;;;24.53
39959;BMP280;25639;53.634;9.880;2022-07-18T07:50:40;158559.88;;;24.91
39959;BMP280;25639;53.634;9.880;2022-07-18T07:53:06;158608.72;;;25.11
39959;BMP280;25639;53.634;9.880;2022-07-18T07:55:32;158544.44;;;24.85
39959;BMP280;25639;53.634;9.880;2022-07-18T07:57:57;158428.66;;;24.39
39959;BMP280;25639;53.634;9.880;2022-07-18T08:00:22;158525.16;;;24.78
39959;BMP280;25639;53.634;9.880;2022-07-18T08:05:19;158527.72;;;24.79
39959;BMP280;25639;53.634;9.880;2022-07-18T08:07:44;158643.50;;;25.25
39959;BMP280;25639;53.634;9.880;2022-07-18T08:10:10;158608.72;;;25.11
39959;BMP280;25639;53.634;9.880;2022-07-18T08:12:35;158673.09;;;25.37
39959;BMP280;25639;53.634;9.880;2022-07-18T08:15:00;158738.66;;;25.63
39959;BMP280;25639;53.634;9.880;2022-07-18T08:17:26;158765.69;;;25.74
39959;BMP280;25639;53.634;9.880;2022-07-18T08:19:51;158800.44;;;25.87
39959;BMP280;25639;53.634;9.880;2022-07-18T08:22:16;158756.69;;;25.70
39959;BMP280;25639;53.634;9.880;2022-07-18T08:24:43;158643.50;;;25.25
39959;BMP280;25639;53.634;9.880;2022-07-18T08:27:08;158693.66;;;25.45
39959;BMP280;25639;53.634;9.880;2022-07-18T08:29:34;158572.72;;;24.97
39959;BMP280;25639;53.634;9.880;2022-07-18T08:31:59;158475.03;;;24.58
39959;BMP280;25639;53.634;9.880;2022-07-18T08:34:25;158502.03;;;24.68
39959;BMP280;25639;53.634;9.880;2022-07-18T08:36:50;158548.28;;;24.87
39959;BMP280;25639;53.634;9.880;2022-07-18T08:39:16;158724.53;;;25.57
39959;BMP280;25639;53.634;9.880;2022-07-18T08:41:44;158707.84;;;25.51
39959;BMP280;25639;53.634;9.880;2022-07-18T08:44:12;158778.56;;;25.79
39959;BMP280;25639;53.634;9.880;2022-07-18T08:46:39;158608.72;;;25.11
39959;BMP280;25639;53.634;9.880;2022-07-18T08:49:06;158740.00;;;25.63
39959;BMP280;25639;53.634;9.880;2022-07-18T08:51:34;158729.66;;;25.59
39959;BMP280;25639;53.634;9.880;2022-07-18T08:54:01;158737.41;;;25.62
39959;BMP280;25639;53.634;9.880;2022-07-18T08:56:27;158832.63;;;26.00
39959;BMP280;25639;53.634;9.880;2022-07-18T08:58:52;158849.38;;;26.07
39959;BMP280;25639;53.634;9.880;2022-07-18T09:01:17;158911.13;;;26.32
39959;BMP280;25639;53.634;9.880;2022-07-18T09:03:43;159079.81;;;26.99
39959;BMP280;25639;53.634;9.880;2022-07-18T09:06:11;159190.53;;;27.43
39959;BMP280;25639;53.634;9.880;2022-07-18T09:08:38;159278.09;;;27.78
39959;BMP280;25639;53.634;9.880;2022-07-18T09:11:08;159271.66;;;27.75
39959;BMP280;25639;53.634;9.880;2022-07-18T09:13:38;159276.78;;;27.77
39959;BMP280;25639;53.634;9.880;2022-07-18T09:16:11;159217.56;;;27.54
39959;BMP280;25639;53.634;9.880;2022-07-18T09:18:40;159251.06;;;27.67
39959;BMP280;25639;53.634;9.880;2022-07-18T09:21:08;159589.88;;;29.02
39959;BMP280;25639;53.634;9.880;2022-07-18T09:23:37;159521.63;;;28.75
39959;BMP280;25639;53.634;9.880;2022-07-18T09:26:03;159511.34;;;28.71
39959;BMP280;25639;53.634;9.880;2022-07-18T09:28:30;159636.38;;;29.21
39959;BMP280;25639;53.634;9.880;2022-07-18T09:31:20;159195.69;;;27.45
39959;BMP280;25639;53.634;9.880;2022-07-18T09:33:56;159537.06;;;28.81
39959;BMP280;25639;53.634;9.880;2022-07-18T09:36:22;159776.88;;;29.77
39959;BMP280;25639;53.634;9.880;2022-07-18T09:38:47;159925.16;;;30.36
39959;BMP280;25639;53.634;9.880;2022-07-18T09:41:13;159921.28;;;30.34
39959;BMP280;25639;53.634;9.880;2022-07-18T09:43:38;159987.03;;;30.60
39959;BMP280;25639;53.634;9.880;2022-07-18T09:46:06;160067.00;;;30.92
39959;BMP280;25639;53.634;9.880;2022-07-18T09:48:32;160127.63;;;31.16
39959;BMP280;25639;53.634;9.880;2022-07-18T09:51:05;160046.34;;;30.84
39959;BMP280;25639;53.634;9.880;2022-07-18T09:53:31;159840.00;;;30.02
39959;BMP280;25639;53.634;9.880;2022-07-18T09:55:58;159694.31;;;29.44
39959;BMP280;25639;53.634;9.880;2022-07-18T09:58:29;159647.94;;;29.25
39959;BMP280;25639;53.634;9.880;2022-07-18T10:00:56;159306.44;;;27.89
39959;BMP280;25639;53.634;9.880;2022-07-18T10:03:23;159345.13;;;28.05
39959;BMP280;25639;53.634;9.880;2022-07-18T10:05:50;159555.09;;;28.88
39959;BMP280;25639;53.634;9.880;2022-07-18T10:08:18;159825.84;;;29.96
39959;BMP280;25639;53.634;9.880;2022-07-18T10:10:46;160108.31;;;31.09
39959;BMP280;25639;53.634;9.880;2022-07-18T10:13:13;160379.25;;;32.17
39959;BMP280;25639;53.634;9.880;2022-07-18T10:15:40;159845.16;;;30.04
39959;BMP280;25639;53.634;9.880;2022-07-18T10:18:08;159818.09;;;29.93
39959;BMP280;25639;53.634;9.880;2022-07-18T10:20:50;159722.69;;;29.55
39959;BMP280;25639;53.634;9.880;2022-07-18T10:25:44;159434.00;;;28.40
39959;BMP280;25639;53.634;9.880;2022-07-18T10:28:11;159488.16;;;28.62
39959;BMP280;25639;53.634;9.880;2022-07-18T10:33:37;159543.53;;;28.84
39959;BMP280;25639;53.634;9.880;2022-07-18T10:36:06;159065.59;;;26.93
39959;BMP280;25639;53.634;9.880;2022-07-18T10:38:32;159354.16;;;28.08
39959;BMP280;25639;53.634;9.880;2022-07-18T10:43:35;159225.31;;;27.57
39959;BMP280;25639;53.634;9.880;2022-07-18T10:46:03;159097.81;;;27.06
39959;BMP280;25639;53.634;9.880;2022-07-18T10:51:12;159473.94;;;28.56
39959;BMP280;25639;53.634;9.880;2022-07-18T10:58:59;159582.19;;;28.99
39959;BMP280;25639;53.634;9.880;2022-07-18T11:01:26;159680.13;;;29.38
39959;BMP280;25639;53.634;9.880;2022-07-18T11:04:29;159401.75;;;28.27
39959;BMP280;25639;53.634;9.880;2022-07-18T11:07:18;159187.97;;;27.42
39959;BMP280;25639;53.634;9.880;2022-07-18T11:09:45;159180.25;;;27.39
39959;BMP280;25639;53.634;9.880;2022-07-18T11:12:24;159096.50;;;27.06
39959;BMP280;25639;53.634;9.880;2022-07-18T11:18:03;159302.56;;;27.88
39959;BMP280;25639;53.634;9.880;2022-07-18T11:20:37;159359.28;;;28.10
39959;BMP280;25639;53.634;9.880;2022-07-18T11:23:23;159432.69;;;28.40
39959;BMP280;25639;53.634;9.880;2022-07-18T11:25:54;159315.50;;;27.93
39959;BMP280;25639;53.634;9.880;2022-07-18T11:28:22;159332.25;;;28.00
39959;BMP280;25639;53.634;9.880;2022-07-18T11:31:02;159434.00;;;28.40
39959;BMP280;25639;53.634;9.880;2022-07-18T11:33:29;159269.09;;;27.74
39959;BMP280;25639;53.634;9.880;2022-07-18T11:36:28;159109.38;;;27.11
39959;BMP280;25639;53.634;9.880;2022-07-18T11:38:57;159300.00;;;27.87
39959;BMP280;25639;53.634;9.880;2022-07-18T11:41:23;159345.13;;;28.05
39959;BMP280;25639;53.634;9.880;2022-07-18T11:43:50;159225.31;;;27.57
39959;BMP280;25639;53.634;9.880;2022-07-18T11:46:18;159406.91;;;28.29
39959;BMP280;25639;53.634;9.880;2022-07-18T11:48:47;159528.03;;;28.78
39959;BMP280;25639;53.634;9.880;2022-07-18T11:51:16;159763.91;;;29.72
39959;BMP280;25639;53.634;9.880;2022-07-18T11:53:52;159477.81;;;28.58
39959;BMP280;25639;53.634;9.880;2022-07-18T11:56:19;159602.78;;;29.07
39959;BMP280;25639;53.634;9.880;2022-07-18T11:58:47;159568.00;;;28.94
39959;BMP280;25639;53.634;9.880;2022-07-18T12:01:13;159745.88;;;29.64
39959;BMP280;25639;53.634;9.880;2022-07-18T12:03:44;159742.00;;;29.63
39959;BMP280;25639;53.634;9.880;2022-07-18T12:06:20;159519.03;;;28.74
39959;BMP280;25639;53.634;9.880;2022-07-18T12:08:51;159562.84;;;28.92
39959;BMP280;25639;53.634;9.880;2022-07-18T12:13:45;159926.41;;;30.36
39959;BMP280;25639;53.634;9.880;2022-07-18T12:16:25;159801.34;;;29.87
39959;BMP280;25639;53.634;9.880;2022-07-18T12:18:52;160020.53;;;30.74
39959;BMP280;25639;53.634;9.880;2022-07-18T12:21:18;159642.78;;;29.23
39959;BMP280;25639;53.634;9.880;2022-07-18T12:23:44;159797.44;;;29.85
39959;BMP280;25639;53.634;9.880;2022-07-18T12:26:25;159980.56;;;30.58
39959;BMP280;25639;53.634;9.880;2022-07-18T12:29:06;159905.78;;;30.28
39959;BMP280;25639;53.634;9.880;2022-07-18T12:31:45;160023.13;;;30.75
39959;BMP280;25639;53.634;9.880;2022-07-18T12:34:15;159936.72;;;30.40
39959;BMP280;25639;53.634;9.880;2022-07-18T12:36:57;159899.31;;;30.26
39959;BMP280;25639;53.634;9.880;2022-07-18T12:39:30;159949.63;;;30.46
39959;BMP280;25639;53.634;9.880;2022-07-18T12:41:57;159917.34;;;30.33
39959;BMP280;25639;53.634;9.880;2022-07-18T12:44:27;159705.91;;;29.49
39959;BMP280;25639;53.634;9.880;2022-07-18T12:46:53;159789.75;;;29.82
39959;BMP280;25639;53.634;9.880;2022-07-18T12:49:19;159698.19;;;29.45
39959;BMP280;25639;53.634;9.880;2022-07-18T12:51:45;159810.34;;;29.90
39959;BMP280;25639;53.634;9.880;2022-07-18T12:54:11;159708.53;;;29.50
39959;BMP280;25639;53.634;9.880;2022-07-18T12:56:36;159653.06;;;29.27
39959;BMP280;25639;53.634;9.880;2022-07-18T12:59:01;159843.88;;;30.03
39959;BMP280;25639;53.634;9.880;2022-07-18T13:01:27;159535.78;;;28.81
39959;BMP280;25639;53.634;9.880;2022-07-18T13:03:52;159640.19;;;29.22
39959;BMP280;25639;53.634;9.880;2022-07-18T13:06:18;159352.81;;;28.08
39959;BMP280;25639;53.634;9.880;2022-07-18T13:08:43;159552.56;;;28.87
39959;BMP280;25639;53.634;9.880;2022-07-18T13:11:08;159655.66;;;29.28
39959;BMP280;25639;53.634;9.880;2022-07-18T13:13:34;159677.59;;;29.37
39959;BMP280;25639;53.634;9.880;2022-07-18T13:15:59;159758.78;;;29.70
39959;BMP280;25639;53.634;9.880;2022-07-18T13:18:24;159739.44;;;29.62
39959;BMP280;25639;53.634;9.880;2022-07-18T13:20:50;159760.03;;;29.70
39959;BMP280;25639;53.634;9.880;2022-07-18T13:23:15;159798.78;;;29.86
39959;BMP280;25639;53.634;9.880;2022-07-18T13:25:41;159815.50;;;29.92
39959;BMP280;25639;53.634;9.880;2022-07-18T13:28:06;159870.97;;;30.14
39959;BMP280;25639;53.634;9.880;2022-07-18T13:30:32;159858.06;;;30.09
39959;BMP280;25639;53.634;9.880;2022-07-18T13:32:57;159819.38;;;29.94
39959;BMP280;25639;53.634;9.880;2022-07-18T13:35:23;159843.88;;;30.03
39959;BMP280;25639;53.634;9.880;2022-07-18T13:37:48;159798.78;;;29.86
39959;BMP280;25639;53.634;9.880;2022-07-18T13:40:14;159783.28;;;29.79
39959;BMP280;25639;53.634;9.880;2022-07-18T13:42:40;159860.66;;;30.10
39959;BMP280;25639;53.634;9.880;2022-07-18T13:45:06;159878.69;;;30.17
39959;BMP280;25639;53.634;9.880;2022-07-18T13:47:32;159899.31;;;30.26
39959;BMP280;25639;53.634;9.880;2022-07-18T13:49:57;159855.47;;;30.08
39959;BMP280;25639;53.634;9.880;2022-07-18T13:52:23;159859.34;;;30.10
39959;BMP280;25639;53.634;9.880;2022-07-18T13:54:48;159971.53;;;30.54
39959;BMP280;25639;53.634;9.880;2022-07-18T13:57:15;159975.41;;;30.56
39959;BMP280;25639;53.634;9.880;2022-07-18T13:59:40;160002.50;;;30.67
39959;BMP280;25639;53.634;9.880;2022-07-18T14:02:05;160020.53;;;30.74
39959;BMP280;25639;53.634;9.880;2022-07-18T14:04:31;160027.00;;;30.76
39959;BMP280;25639;53.634;9.880;2022-07-18T14:06:56;159797.44;;;29.85
39959;BMP280;25639;53.634;9.880;2022-07-18T14:09:21;159760.03;;;29.70
39959;BMP280;25639;53.634;9.880;2022-07-18T14:11:47;159765.19;;;29.72
39959;BMP280;25639;53.634;9.880;2022-07-18T14:14:12;159793.63;;;29.83
39959;BMP280;25639;53.634;9.880;2022-07-18T14:16:38;159910.94;;;30.30
39959;BMP280;25639;53.634;9.880;2022-07-18T14:19:03;160036.03;;;30.80